Date,TemperatureHighF,TemperatureAvgF,TemperatureLowF,DewpointHighF,DewpointAvgF,DewpointLowF,HumidityHigh,HumidityAvg,HumidityLow,PressureMaxIn,PressureMinIn,WindSpeedMaxMPH,WindSpeedAvgMPH,GustSpeedMaxMPH,PrecipitationSumIn
2013-1-1,72.0,57.6,48.0,49.0,44.7,37.0,83,64,40,0.00,40.00,13,8,24,0.01
2013-1-2,66.0,55.5,44.0,49.0,37.9,21.0,74,52,28,0.00,40.00,13,8,26,0.00
2013-1-3,70.0,55.9,44.0,48.0,29.0,10.0,60,37,18,0.00,40.00,13,8,26,0.00
2013-1-4,66.0,54.1,49.0,54.0,48.1,40.0,95,81,58,0.00,40.00,16,12,28,0.14
2013-1-5,62.0,50.9,45.0,53.0,45.9,41.0,94,84,58,0.00,40.00,14,10,31,0.18
2013-1-6,65.0,52.9,48.0,54.0,48.6,42.0,95,86,55,0.00,40.00,12,8,22,0.18
2013-1-7,71.0,56.1,50.0,53.0,41.0,17.0,96,65,22,0.00,40.00,12,8,21,0.13
2013-1-8,70.0,56.4,46.0,53.0,36.2,17.0,87,50,27,0.00,40.00,12,8,21,0.01
2013-1-9,71.0,57.2,49.0,54.0,49.3,46.0,95,77,47,0.00,40.00,10,7,19,0.03
2013-1-10,66.0,54.3,43.0,52.0,43.3,38.0,95,68,46,0.00,40.00,12,8,23,0.03
2013-1-11,71.0,55.0,43.0,53.0,44.0,31.0,96,69,37,0.00,40.00,11,5,21,0.19
2013-1-12,67.0,51.3,39.0,55.0,47.1,38.0,98,88,49,0.00,40.00,8,4,14,0.11
2013-1-13,68.0,56.0,47.0,58.0,51.0,43.0,98,85,63,0.00,40.00,8,3,15,0.42
2013-1-14,69.0,54.7,44.0,57.0,48.9,38.0,97,82,59,0.00,40.00,10,5,18,0.01
2013-1-15,69.0,54.1,42.0,59.0,50.0,39.0,98,87,56,0.00,40.00,7,4,12,0.67
2013-1-16,68.0,55.8,47.0,57.0,52.9,46.0,98,92,65,0.00,40.00,7,4,12,0.18
2013-1-17,64.0,52.1,41.0,53.0,48.7,40.0,99,89,66,0.00,40.00,7,4,13,0.04
2013-1-18,65.0,50.8,39.0,53.0,46.0,38.0,98,86,56,0.00,40.00,5,3,11,0.01
2013-1-19,66.0,49.7,36.0,52.0,38.9,14.0,96,71,31,0.00,40.00,8,4,14,0.00
2013-1-20,70.0,52.7,36.0,54.0,35.0,16.0,93,56,13,0.00,40.00,9,4,21,0.00
2013-1-21,77.0,60.1,41.0,52.0,33.1,10.0,70,39,15,0.00,40.00,15,9,31,0.00
2013-1-22,78.0,63.0,54.0,45.0,29.5,19.0,72,30,18,0.00,40.00,15,11,34,0.00
2013-1-23,72.0,58.2,42.0,55.0,35.5,22.0,93,47,17,0.00,40.00,10,5,17,0.00
2013-1-24,62.0,52.1,42.0,53.0,47.1,36.0,96,84,55,0.00,40.00,5,3,11,0.02
2013-1-25,64.0,53.0,39.0,54.0,49.5,37.0,97,89,65,0.00,40.00,7,2,12,0.03
2013-1-26,64.0,48.5,35.0,51.0,43.6,34.0,96,85,58,0.00,40.00,7,4,16,0.01
2013-1-27,60.0,50.1,41.0,58.0,48.5,40.0,97,94,87,0.00,40.00,7,4,13,0.07
2013-1-28,65.0,49.4,36.0,54.0,45.7,35.0,98,88,67,0.00,40.00,7,4,14,0.01
2013-1-29,60.0,53.5,48.0,56.0,52.0,47.0,98,96,87,0.00,40.00,6,4,15,0.70
2013-1-30,66.0,55.7,51.0,58.0,53.4,50.0,98,93,70,0.00,40.00,8,4,16,0.57
2013-1-31,65.0,55.0,45.0,57.0,49.8,43.0,98,84,74,0.00,40.00,10,5,16,0.02
2013-2-1,69.0,56.2,47.0,53.0,37.8,15.0,94,57,24,0.00,40.00,13,9,25,0.02
2013-2-2,78.0,59.7,45.0,28.0,10.0,-12.0,49,20,3,0.00,40.00,12,6,23,0.01
2013-2-3,78.0,62.4,50.0,24.0,-0.2,-13.0,22,9,3,0.00,40.00,17,12,33,0.00
2013-2-4,78.0,63.2,47.0,39.0,9.0,-9.0,55,15,5,0.00,40.00,18,10,37,0.00
2013-2-5,67.0,54.8,46.0,50.0,42.3,19.0,84,65,33,0.00,40.00,13,8,27,0.00
2013-2-6,70.0,55.6,47.0,50.0,46.3,39.0,88,72,46,0.00,40.00,8,5,18,0.00
2013-2-7,66.0,54.0,47.0,54.0,47.8,37.0,96,80,64,0.00,40.00,9,5,16,0.36
2013-2-8,68.0,53.4,39.0,52.0,44.3,32.0,93,73,42,0.00,40.00,9,3,17,0.01
2013-2-9,69.0,53.7,39.0,52.0,43.4,30.0,95,71,39,0.00,40.00,12,7,22,0.00
2013-2-10,68.0,56.1,39.0,48.0,37.8,26.0,95,54,21,0.00,40.00,14,8,27,0.01
2013-2-11,73.0,57.7,47.0,48.0,38.4,29.0,77,51,25,0.00,40.00,13,8,24,0.01
2013-2-12,71.0,53.0,39.0,50.0,40.0,17.0,97,64,34,0.00,40.00,12,4,24,0.00
2013-2-13,68.0,50.2,36.0,49.0,39.4,15.0,97,70,35,0.00,40.00,7,4,14,0.00
2013-2-14,68.0,49.6,33.0,49.0,29.7,12.0,81,48,25,0.00,40.00,8,4,17,0.00
2013-2-15,68.0,49.7,36.0,53.0,39.8,14.0,95,71,35,0.00,40.00,10,6,20,0.23
2013-2-16,60.0,50.8,46.0,52.0,47.4,42.0,96,88,66,0.00,40.00,15,9,26,0.57
2013-2-17,62.0,50.3,44.0,53.0,45.0,36.0,94,82,62,0.00,40.00,14,11,30,0.28
2013-2-18,55.0,49.2,45.0,52.0,46.9,42.0,95,92,87,0.00,40.00,13,10,30,1.10
2013-2-19,62.0,52.2,45.0,48.0,44.0,40.0,91,76,45,0.00,40.00,15,11,31,0.05
2013-2-20,62.0,52.5,46.0,53.0,45.1,33.0,95,77,49,0.00,40.00,13,7,23,0.19
2013-2-21,70.0,54.3,43.0,51.0,44.3,33.0,96,71,43,0.00,40.00,8,6,21,0.66
2013-2-22,58.0,50.6,45.0,52.0,47.5,41.0,94,89,78,0.00,40.00,8,6,17,1.10
2013-2-23,63.0,50.8,42.0,53.0,47.3,41.0,96,89,65,0.00,40.00,9,6,18,0.08
2013-2-24,59.0,51.5,46.0,53.0,47.6,43.0,94,87,73,0.00,40.00,14,10,28,0.30
2013-2-25,66.0,54.1,46.0,52.0,46.1,40.0,95,76,50,0.00,40.00,13,9,23,0.31
2013-2-26,63.0,51.5,44.0,47.0,43.6,36.0,94,76,53,0.00,40.00,18,11,34,0.27
2013-2-27,69.0,55.1,44.0,49.0,37.0,8.0,93,56,20,0.00,40.00,13,8,24,0.04
2013-2-28,70.0,55.3,45.0,46.0,26.4,8.0,93,36,15,0.00,40.00,15,8,30,0.00
2013-3-1,69.0,55.2,44.0,40.0,27.9,0.0,74,42,9,0.00,40.00,17,12,33,0.00
2013-3-2,69.0,57.4,48.0,44.0,23.7,6.0,66,29,16,0.00,40.00,14,10,30,0.00
2013-3-3,75.0,58.9,41.0,40.0,15.0,-2.0,66,23,5,0.00,40.00,10,6,24,0.00
2013-3-4,72.0,56.6,40.0,50.0,20.6,-6.0,92,30,7,0.00,40.00,10,6,16,0.00
2013-3-5,69.0,50.0,35.0,50.0,31.7,4.0,93,55,19,0.00,40.00,7,4,15,0.00
2013-3-6,66.0,51.4,37.0,52.0,42.0,20.0,95,72,43,0.00,40.00,9,4,16,0.00
2013-3-7,69.0,51.2,34.0,52.0,39.0,18.0,93,65,38,0.00,40.00,7,4,16,0.00
2013-3-8,69.0,53.0,39.0,51.0,43.4,29.0,92,72,51,0.00,40.00,9,5,18,0.00
2013-3-9,67.0,50.8,40.0,54.0,44.9,32.0,96,81,56,0.00,40.00,10,6,21,0.04
2013-3-10,65.0,53.6,44.0,54.0,47.6,41.0,96,81,62,0.00,40.00,12,7,21,0.01
2013-3-11,66.0,51.9,40.0,54.0,46.7,37.0,97,84,48,0.00,40.00,9,5,16,0.31
2013-3-12,59.0,52.3,47.0,56.0,49.9,45.0,97,92,80,0.00,40.00,6,3,11,0.07
2013-3-13,68.0,53.0,41.0,57.0,50.5,40.0,100,93,59,0.00,40.00,6,2,11,0.13
2013-3-14,64.0,51.9,41.0,57.0,48.9,36.0,100,90,67,0.00,40.00,6,3,12,0.07
2013-3-15,68.0,54.0,43.0,59.0,51.6,41.0,100,92,66,0.00,40.00,6,3,14,0.46
2013-3-16,65.0,53.2,46.0,57.0,49.7,41.0,100,89,71,0.00,40.00,6,2,13,0.19
2013-3-17,56.0,51.6,48.0,56.0,49.3,44.0,100,92,82,0.00,40.00,7,3,15,0.36
2013-3-18,63.0,52.3,42.0,57.0,50.2,42.0,100,93,77,0.00,40.00,9,2,16,0.07
2013-3-19,62.0,45.1,36.0,53.0,42.7,36.0,99,93,71,0.00,40.00,7,4,14,0.05
2013-3-20,62.0,54.4,42.0,58.0,53.9,42.0,100,98,80,0.00,40.00,8,5,17,0.23
2013-3-21,68.0,52.5,42.0,56.0,48.0,41.0,100,87,58,0.00,40.00,8,4,15,0.01
2013-3-22,68.0,52.5,41.0,56.0,47.2,36.0,100,84,55,0.00,40.00,7,3,12,0.07
2013-3-23,65.0,53.9,46.0,57.0,52.0,46.0,100,94,69,0.00,40.00,6,3,14,0.03
2013-3-24,67.0,54.4,46.0,55.0,49.4,44.0,100,85,60,0.00,40.00,9,4,17,0.01
2013-3-25,70.0,54.7,43.0,58.0,51.8,43.0,100,91,64,0.00,40.00,6,3,11,0.01
2013-3-26,67.0,55.1,43.0,58.0,52.5,41.0,100,91,69,0.00,40.00,5,2,11,0.02
2013-3-27,67.0,53.3,42.0,55.0,47.8,39.0,100,83,64,0.00,40.00,5,3,11,0.01
2013-3-28,69.0,58.0,50.0,55.0,47.5,40.0,82,68,54,0.00,40.00,12,8,24,0.05
2013-3-29,67.0,53.5,45.0,59.0,50.0,40.0,100,89,52,0.00,40.00,6,3,13,1.05
2013-3-30,63.0,53.9,47.0,60.0,51.7,-99.9,100,97,82,0.00,40.00,5,2,11,0.79
2013-3-31,63.0,51.9,46.0,57.0,51.1,42.0,100,97,81,0.00,40.00,6,3,12,0.10
2013-4-1,61.0,48.1,39.0,52.0,46.0,38.0,100,93,67,0.00,40.00,9,4,17,0.10
2013-4-2,56.0,49.7,41.0,54.0,48.8,40.0,100,96,82,0.00,40.00,4,2,8,0.07
2013-4-3,58.0,49.6,39.0,53.0,48.9,39.0,100,98,83,0.00,40.00,5,2,10,0.09
2013-4-4,59.0,51.0,39.0,57.0,49.5,38.0,100,95,74,0.00,40.00,6,2,11,0.03
2013-4-5,68.0,55.6,46.0,61.0,52.6,46.0,100,90,64,0.00,40.00,7,3,13,0.02
2013-4-6,75.0,57.7,46.0,59.0,51.4,43.0,100,82,52,0.00,40.00,9,4,17,0.00
2013-4-7,74.0,57.9,43.0,57.0,45.4,33.0,89,65,38,0.00,40.00,6,5,14,0.00
2013-4-8,72.0,56.9,46.0,55.0,46.2,27.0,100,71,37,0.00,40.00,9,5,20,0.00
2013-4-9,69.0,55.8,46.0,58.0,51.7,46.0,100,88,53,0.00,40.00,7,4,16,0.03
2013-4-10,71.0,56.4,42.0,56.0,49.3,42.0,99,80,49,0.00,40.00,8,5,16,0.01
2013-4-11,73.0,58.6,46.0,61.0,52.2,32.0,100,82,38,0.00,40.00,6,3,13,0.01
2013-4-12,70.0,55.4,43.0,56.0,50.7,43.0,100,86,57,0.00,40.00,7,3,13,0.01
2013-4-13,70.0,56.3,43.0,61.0,51.3,41.0,100,85,53,0.00,40.00,7,3,13,0.01
2013-4-14,74.0,58.1,45.0,58.0,51.5,42.0,99,81,54,0.00,40.00,7,4,13,0.01
2013-4-15,74.0,57.7,43.0,59.0,49.0,36.0,100,75,37,0.00,40.00,7,4,15,0.00
2013-4-16,72.0,58.1,45.0,59.0,48.5,33.0,100,73,32,0.00,40.00,7,4,13,0.00
2013-4-17,75.0,59.1,46.0,60.0,44.5,30.0,97,61,35,0.00,40.00,13,7,24,0.00
2013-4-18,72.0,58.8,45.0,55.0,46.2,26.0,99,65,39,0.00,40.00,11,6,19,0.00
2013-4-19,68.0,54.2,42.0,59.0,48.1,29.0,100,82,52,0.00,40.00,6,4,14,0.28
2013-4-20,69.0,54.1,40.0,56.0,50.1,37.0,100,88,57,0.00,40.00,6,4,15,0.03
2013-4-21,67.0,55.5,46.0,64.0,54.2,45.0,100,95,82,0.00,40.00,6,3,11,0.20
2013-4-22,71.0,55.7,40.0,59.0,51.2,39.0,99,87,60,0.00,40.00,9,4,19,0.01
2013-4-23,72.0,56.0,42.0,60.0,52.5,41.0,100,90,58,0.00,40.00,6,3,15,0.60
2013-4-24,69.0,56.4,45.0,58.0,50.0,36.0,100,82,52,0.00,40.00,10,5,17,0.02
2013-4-25,73.0,60.8,52.0,52.0,43.6,36.0,70,54,35,0.00,40.00,13,8,24,0.00
2013-4-26,72.0,57.9,48.0,54.0,44.2,33.0,100,64,30,0.00,40.00,8,6,16,0.00
2013-4-27,70.0,56.5,45.0,55.0,50.1,40.0,99,82,46,0.00,40.00,8,4,16,0.00
2013-4-28,73.0,55.2,41.0,61.0,51.4,40.0,100,89,45,0.00,40.00,9,4,17,0.25
2013-4-29,64.0,56.8,50.0,63.0,56.1,48.0,100,98,90,0.00,40.00,6,2,13,0.36
2013-4-30,68.0,57.4,46.0,59.0,53.1,43.0,99,86,65,0.00,40.00,8,3,16,0.04
2013-5-1,71.0,56.7,40.0,56.0,48.6,36.0,99,76,57,0.00,40.00,8,5,17,0.00
2013-5-2,72.0,55.9,48.0,60.0,50.3,34.0,100,83,51,0.00,40.00,9,4,19,0.00
2013-5-3,70.0,52.9,37.0,56.0,48.2,37.0,100,86,49,0.00,40.00,8,3,16,0.03
2013-5-4,63.0,53.9,42.0,56.0,52.7,42.0,100,96,74,0.00,40.00,4,2,8,0.04
2013-5-5,62.0,54.8,47.0,58.0,53.5,46.0,100,96,82,0.00,40.00,6,3,10,0.03
2013-5-6,71.0,56.8,45.0,60.0,53.4,45.0,100,90,58,0.00,40.00,5,3,11,0.12
2013-5-7,73.0,60.0,46.0,62.0,55.0,46.0,100,85,53,0.00,40.00,7,3,17,0.02
2013-5-8,73.0,58.1,43.0,61.0,52.8,43.0,100,84,55,0.00,40.00,8,4,16,0.00
2013-5-9,73.0,59.6,50.0,65.0,56.9,46.0,100,92,65,0.00,40.00,6,3,12,0.65
2013-5-10,72.0,60.7,53.0,65.0,55.8,-99.9,100,91,71,0.00,40.00,5,2,10,0.20
2013-5-11,71.0,60.8,51.0,61.0,56.0,-99.9,100,88,61,0.00,40.00,7,3,14,0.00
2013-5-12,67.0,59.1,53.0,63.0,57.6,53.0,100,95,77,0.00,40.00,9,5,17,0.04
2013-5-13,72.0,59.8,51.0,58.0,53.1,38.0,100,80,56,0.00,40.00,8,6,16,0.02
2013-5-14,74.0,60.2,51.0,55.0,48.4,39.0,84,67,43,0.00,40.00,11,8,20,0.01
2013-5-15,71.0,59.4,50.0,56.0,49.3,32.0,99,70,49,0.00,40.00,10,7,23,0.00
2013-5-16,70.0,53.6,49.0,58.0,33.3,-99.9,99,77,49,0.00,40.00,10,6,18,0.01
2013-5-17,67.0,56.1,49.0,55.0,48.6,-99.9,99,86,57,0.00,40.00,12,6,20,0.01
2013-5-18,65.0,55.2,49.0,58.0,53.7,49.0,100,95,72,0.00,40.00,4,2,10,0.43
2013-5-19,67.0,55.6,47.0,58.0,53.4,45.0,100,93,68,0.00,40.00,5,3,11,0.08
2013-5-20,68.0,55.3,43.0,61.0,52.8,42.0,100,92,65,0.00,40.00,7,4,14,0.11
2013-5-21,70.0,57.4,45.0,61.0,53.3,44.0,100,88,60,0.00,40.00,9,5,15,0.08
2013-5-22,74.0,57.7,42.0,61.0,54.8,42.0,100,91,61,0.00,40.00,6,3,12,0.55
2013-5-23,70.0,59.0,47.0,61.0,54.3,46.0,100,85,63,0.00,40.00,9,5,18,0.12
2013-5-24,76.0,61.4,51.0,59.0,51.7,44.0,99,73,41,0.00,40.00,11,7,22,0.01
2013-5-25,72.0,61.4,52.0,58.0,52.9,46.0,100,77,45,0.00,40.00,11,8,22,0.14
2013-5-26,65.0,56.4,49.0,60.0,54.7,39.0,100,94,69,0.00,40.00,11,6,20,0.61
2013-5-27,67.0,55.2,49.0,59.0,54.3,49.0,99,96,73,0.00,40.00,6,4,15,0.08
2013-5-28,73.0,58.4,48.0,61.0,54.7,48.0,100,89,57,0.00,40.00,6,3,13,0.71
2013-5-29,70.0,57.8,49.0,63.0,56.3,49.0,100,95,72,0.00,40.00,5,2,12,0.63
2013-5-30,74.0,59.6,42.0,56.0,47.4,36.0,99,68,44,0.00,40.00,7,5,14,0.01
2013-5-31,78.0,62.1,44.0,63.0,51.4,32.0,100,69,45,0.00,40.00,8,5,15,0.01
2013-6-1,78.0,63.5,52.0,54.0,39.2,28.0,57,41,27,0.00,40.00,12,8,21,0.00
2013-6-2,80.0,67.7,52.0,42.0,35.9,18.0,56,33,19,0.00,40.00,10,7,22,0.00
2013-6-3,77.0,65.3,52.0,56.0,36.4,18.0,64,35,18,0.00,40.00,10,6,18,0.00
2013-6-4,77.0,64.2,51.0,44.0,31.4,20.0,70,31,18,0.00,40.00,13,8,25,0.00
2013-6-5,76.0,61.9,44.0,55.0,39.9,21.0,100,49,21,0.00,40.00,12,6,21,0.00
2013-6-6,72.0,58.3,41.0,57.0,45.8,21.0,99,66,34,0.00,40.00,15,8,24,0.00
2013-6-7,71.0,56.5,42.0,57.0,49.1,41.0,100,79,48,0.00,40.00,13,8,24,0.00
2013-6-8,70.0,58.1,46.0,57.0,52.1,45.0,99,82,57,0.00,40.00,9,5,18,0.00
2013-6-9,74.0,60.4,48.0,57.0,49.5,39.0,99,70,40,0.00,40.00,11,4,20,0.00
2013-6-10,79.0,64.0,48.0,58.0,48.0,35.0,91,58,33,0.00,40.00,7,3,14,0.00
2013-6-11,78.0,63.9,50.0,54.0,41.0,25.0,64,44,28,0.00,40.00,8,5,17,0.00
2013-6-12,74.0,62.1,51.0,58.0,42.3,26.0,87,51,28,0.00,40.00,15,10,26,0.00
2013-6-13,70.0,59.7,51.0,55.0,49.0,35.0,92,68,41,0.00,40.00,15,10,27,0.00
2013-6-14,70.0,59.1,48.0,58.0,48.9,28.0,95,70,36,0.00,40.00,14,8,25,0.00
2013-6-15,73.0,60.7,46.0,54.0,44.8,31.0,99,61,24,0.00,40.00,11,7,20,0.00
2013-6-16,74.0,57.9,41.0,57.0,48.9,24.0,100,74,45,0.00,40.00,9,6,16,0.00
2013-6-17,70.0,59.2,53.0,57.0,54.3,52.0,100,86,57,0.00,40.00,12,7,24,0.01
2013-6-18,71.0,58.2,52.0,57.0,53.7,48.0,99,87,57,0.00,40.00,13,7,22,0.02
2013-6-19,66.0,56.9,50.0,61.0,54.4,50.0,100,92,70,0.00,40.00,9,4,14,0.01